Time;durP1;ratioP1;P1;durP2;ratioP2;P2;SDS_P1;SDS_P2;PMS_P1;PMS_P2;Temp;Humidity;BMP_temperature;BMP_pressure;BME280_temperature;BME280_humidity;BME280_pressure;Samples;Min_cycle;Max_cycle;Signal;HPM_P1;HPM_P2
2021/12/05 00:24:48;;;;;;;21.27;13.13;;;;;;;4.01;93.42;99635.41;5009988;28;20401;-82
2021/12/05 00:27:22;;;;;;;24.20;12.95;;;;;;;3.91;94.41;99629.91;5012896;28;20052;-82
2021/12/05 00:32:52;;;;;;;24.25;12.52;;;;;;;3.88;95.00;99630.44;5012974;28;20045;-82
2021/12/05 01:13:34;;;;;;;24.23;13.70;;;;;;;3.70;98.44;99610.81;5014262;28;20409;-82
2021/12/05 01:16:12;;;;;;;21.48;12.98;;;;;;;3.68;97.61;99607.56;5014481;28;20057;-82
2021/12/05 01:18:40;;;;;;;22.90;13.27;;;;;;;3.67;97.20;99603.19;5032409;28;20049;-82
2021/12/05 01:21:13;;;;;;;27.17;14.43;;;;;;;3.61;97.86;99604.22;5010666;28;20072;-82
2021/12/05 01:23:58;;;;;;;22.27;13.43;;;;;;;3.66;97.51;99598.84;5023469;28;20060;-82
2021/12/05 01:29:31;;;;;;;25.27;13.90;;;;;;;3.66;97.53;99612.38;5014670;28;20049;-82
2021/12/05 01:51:03;;;;;;;30.27;15.38;;;;;;;3.64;98.57;99598.31;5031714;28;20057;-82
2021/12/05 02:15:23;;;;;;;23.58;14.27;;;;;;;3.72;96.94;99587.00;5013762;28;20072;-82
2021/12/05 02:42:29;;;;;;;21.80;13.63;;;;;;;3.74;95.59;99527.22;5034878;28;20064;-82
2021/12/05 02:45:02;;;;;;;20.48;12.85;;;;;;;3.75;95.31;99524.25;5017017;28;20045;-82
2021/12/05 02:47:31;;;;;;;22.67;13.82;;;;;;;3.78;94.15;99522.09;5013638;28;20082;-82
2021/12/05 02:50:05;;;;;;;22.38;14.07;;;;;;;3.87;94.49;99520.53;5032560;28;20056;-82
2021/12/05 02:52:39;;;;;;;24.55;15.48;;;;;;;3.88;93.34;99516.75;5017000;28;20046;-82
2021/12/05 02:55:17;;;;;;;28.15;14.85;;;;;;;3.91;92.34;99510.78;5013471;28;20053;-82
2021/12/05 03:00:21;;;;;;;21.58;13.82;;;;;;;3.90;92.02;99488.34;5013289;28;20397;-82
2021/12/05 03:02:51;;;;;;;21.67;13.27;;;;;;;3.80;93.88;99476.66;5008384;28;20041;-82
2021/12/05 03:05:28;;;;;;;23.40;14.00;;;;;;;3.89;94.00;99467.78;5013279;28;20038;-82
2021/12/05 03:08:00;;;;;;;22.40;14.20;;;;;;;3.65;95.57;99474.69;5004856;28;20050;-82
2021/12/05 03:10:31;;;;;;;25.75;14.75;;;;;;;3.69;95.96;99471.19;5011253;28;20057;-82
2021/12/05 03:12:59;;;;;;;25.73;15.43;;;;;;;3.71;95.86;99476.34;5034349;28;20049;-86
2021/12/05 03:15:28;;;;;;;24.30;14.32;;;;;;;3.61;97.63;99468.94;5013237;28;20402;-82
2021/12/05 03:17:56;;;;;;;21.55;14.32;;;;;;;3.64;98.09;99473.84;5015256;28;20389;-82
2021/12/05 03:20:24;;;;;;;22.08;14.13;;;;;;;3.60;97.75;99470.03;5034103;28;20064;-82
2021/12/05 03:22:52;;;;;;;20.27;13.95;;;;;;;3.71;97.75;99487.16;5012748;28;20041;-82
2021/12/05 03:25:21;;;;;;;21.70;14.10;;;;;;;3.76;98.11;99482.56;5020315;28;20046;-82
2021/12/05 03:27:49;;;;;;;22.92;14.60;;;;;;;3.75;98.15;99472.84;5013564;28;20046;-82
2021/12/05 03:30:24;;;;;;;27.52;15.40;;;;;;;3.75;97.86;99470.13;5011915;28;20058;-81
2021/12/05 03:32:55;;;;;;;22.90;14.05;;;;;;;3.72;98.24;99476.06;5028889;28;20054;-82
2021/12/05 03:35:27;;;;;;;25.38;14.90;;;;;;;3.68;98.05;99474.97;5013011;28;20042;-82
2021/12/05 03:37:57;;;;;;;25.88;14.82;;;;;;;3.61;98.08;99474.34;5029603;28;20041;-81
2021/12/05 03:40:28;;;;;;;23.52;14.07;;;;;;;3.68;97.25;99485.78;4999353;28;20489;-82
2021/12/05 03:43:02;;;;;;;23.02;13.85;;;;;;;3.81;95.95;99481.00;5014435;28;20037;-81
2021/12/05 03:45:35;;;;;;;28.17;14.45;;;;;;;3.86;95.35;99481.03;5012033;28;20046;-81
2021/12/05 03:48:05;;;;;;;23.67;14.55;;;;;;;3.84;95.58;99496.69;5005872;28;20065;-81
2021/12/05 03:50:35;;;;;;;22.48;14.45;;;;;;;3.72;95.86;99491.50;4993044;28;20061;-81
2021/12/05 03:53:06;;;;;;;21.95;14.15;;;;;;;3.66;95.54;99482.50;5007640;28;20045;-81
2021/12/05 03:55:38;;;;;;;24.20;14.70;;;;;;;3.71;96.37;99482.53;5009216;28;20065;-81
2021/12/05 03:58:07;;;;;;;24.10;14.32;;;;;;;3.72;96.30;99491.50;5008200;28;20049;-81
2021/12/05 04:00:39;;;;;;;25.80;15.40;;;;;;;3.75;95.54;99497.19;4992935;28;20087;-82
2021/12/05 04:03:10;;;;;;;23.52;15.57;;;;;;;3.81;94.54;99497.22;5007740;28;20058;-81
2021/12/05 04:05:38;;;;;;;21.88;14.35;;;;;;;3.80;94.92;99503.72;5011823;28;20046;-81
2021/12/05 04:08:10;;;;;;;24.33;15.13;;;;;;;3.75;94.91;99491.78;5011157;28;20042;-81
2021/12/05 04:10:41;;;;;;;22.35;14.52;;;;;;;3.73;95.38;99496.63;5010764;28;20061;-81
2021/12/05 04:13:12;;;;;;;25.50;15.05;;;;;;;3.64;95.51;99495.50;5008930;28;20043;-81
2021/12/05 04:15:40;;;;;;;25.60;15.13;;;;;;;3.61;96.12;99486.00;5008285;28;20049;-81
2021/12/05 04:18:08;;;;;;;27.67;15.63;;;;;;;3.61;96.01;99493.28;5013122;28;20058;-81
2021/12/05 04:20:36;;;;;;;27.88;16.20;;;;;;;3.60;96.21;99494.38;5011254;28;20053;-81
2021/12/05 04:23:05;;;;;;;24.27;15.88;;;;;;;3.49;96.02;99494.28;4962804;28;20058;-81
2021/12/05 04:25:36;;;;;;;27.48;14.52;;;;;;;3.59;96.34;99498.97;5001321;28;20050;-81
2021/12/05 04:28:07;;;;;;;31.08;16.80;;;;;;;3.61;96.56;99504.13;5012194;28;20050;-81
2021/12/05 04:30:36;;;;;;;26.65;15.70;;;;;;;3.56;96.86;99514.94;5013104;28;20046;-81
2021/12/05 04:33:04;;;;;;;25.48;15.82;;;;;;;3.52;96.98;99516.50;5013260;28;20057;-81
2021/12/05 04:35:34;;;;;;;24.60;15.85;;;;;;;3.54;97.62;99514.34;5013370;28;20065;-81
2021/12/05 04:38:03;;;;;;;28.00;15.93;;;;;;;3.47;98.26;99518.09;5011725;28;20056;-81
2021/12/05 04:40:33;;;;;;;25.80;16.10;;;;;;;3.47;99.09;99514.59;5024177;28;20034;-82
2021/12/05 04:43:03;;;;;;;31.25;17.58;;;;;;;3.49;98.99;99507.81;5028935;28;20386;-82
2021/12/05 04:45:34;;;;;;;27.88;15.77;;;;;;;3.51;98.29;99499.44;5008484;28;20047;-82
2021/12/05 04:48:06;;;;;;;33.97;16.63;;;;;;;3.52;98.56;99497.56;5004679;28;20054;-82
2021/12/05 04:50:36;;;;;;;27.63;15.77;;;;;;;3.62;99.15;99490.34;5011081;28;20065;-82
2021/12/05 04:53:05;;;;;;;25.00;15.80;;;;;;;3.58;98.86;99491.91;4997621;28;20042;-82
2021/12/05 04:55:34;;;;;;;26.23;17.20;;;;;;;3.48;99.71;99481.84;5012694;28;20050;-82
2021/12/05 04:58:06;;;;;;;31.27;17.10;;;;;;;3.45;99.99;99503.19;5007103;28;20061;-82
2021/12/05 05:00:41;;;;;;;28.08;16.98;;;;;;;3.47;100.00;99501.84;5007701;28;20669;-81
2021/12/05 05:03:11;;;;;;;27.40;16.38;;;;;;;3.49;100.00;99494.28;5006281;28;20050;-82
2021/12/05 05:05:46;;;;;;;28.85;17.67;;;;;;;3.43;100.00;99494.53;5007828;28;20046;-81
2021/12/05 05:08:17;;;;;;;31.50;17.27;;;;;;;3.44;100.00;99506.97;4996754;28;20391;-82
2021/12/05 05:10:46;;;;;;;25.58;16.00;;;;;;;3.43;100.00;99525.09;5006427;28;20605;-82
2021/12/05 05:13:14;;;;;;;31.92;17.63;;;;;;;3.38;100.00;99513.41;5000333;28;20045;-82
2021/12/05 05:15:42;;;;;;;30.85;17.63;;;;;;;3.55;100.00;99516.81;4998356;28;20050;-82
2021/12/05 05:18:12;;;;;;;29.98;17.92;;;;;;;3.54;100.00;99508.94;5011117;28;20057;-81
2021/12/05 05:21:33;;;;;;;28.65;16.92;;;;;;;3.59;99.74;99526.03;5012188;28;20061;-81
2021/12/05 05:45:16;;;;;;;26.92;16.98;;;;;;;3.52;100.00;99530.03;5011879;28;20482;-82
2021/12/05 05:50:17;;;;;;;27.95;17.15;;;;;;;3.50;99.88;99535.69;5010801;28;20512;-82
2021/12/05 05:52:45;;;;;;;34.47;19.08;;;;;;;3.61;98.54;99536.56;5024167;28;20056;-82
2021/12/05 05:55:14;;;;;;;33.75;18.50;;;;;;;3.61;98.89;99545.53;5031392;28;20049;-82
2021/12/05 06:00:34;;;;;;;29.85;17.13;;;;;;;3.64;98.07;99538.78;5032435;28;20488;-82
2021/12/05 06:03:24;;;;;;;28.88;17.30;;;;;;;3.58;98.44;99531.69;5035191;28;20064;-81
2021/12/05 06:05:56;;;;;;;28.92;17.73;;;;;;;3.59;98.85;99527.91;5024043;28;20061;-81
2021/12/05 06:08:27;;;;;;;32.20;18.17;;;;;;;3.55;99.13;99530.34;5022763;28;20130;-81
2021/12/05 06:11:05;;;;;;;30.33;18.27;;;;;;;3.58;99.12;99518.97;5033134;28;20053;-82
2021/12/05 06:13:35;;;;;;;33.15;17.98;;;;;;;3.70;97.67;99517.97;5014352;28;20404;-82
2021/12/05 06:16:05;;;;;;;28.13;16.83;;;;;;;3.60;98.03;99518.72;5033156;28;20056;-82
2021/12/05 06:18:34;;;;;;;28.90;17.90;;;;;;;3.58;98.66;99518.19;5034990;28;20052;-81
2021/12/05 06:21:03;;;;;;;35.83;18.55;;;;;;;3.49;98.63;99509.72;5017463;28;20058;-82
2021/12/05 06:23:31;;;;;;;26.73;17.17;;;;;;;3.44;98.81;99499.69;5034981;28;20045;-82
2021/12/05 06:25:59;;;;;;;29.50;17.10;;;;;;;3.40;99.29;99495.88;5035054;28;20048;-82
2021/12/05 06:28:38;;;;;;;26.70;17.08;;;;;;;3.39;98.99;99499.66;5034909;28;20041;-82
2021/12/05 06:31:33;;;;;;;27.38;16.55;;;;;;;3.37;98.76;99496.38;5015831;28;20072;-81
2021/12/05 06:36:57;;;;;;;31.38;17.08;;;;;;;3.22;99.14;99489.78;5035050;28;19928;-81
2021/12/05 06:39:39;;;;;;;30.20;17.00;;;;;;;3.18;99.39;99485.94;5035293;28;20053;-81
2021/12/05 06:42:44;;;;;;;36.70;19.50;;;;;;;3.32;98.05;99490.94;5017770;28;20057;-81
2021/12/05 06:47:55;;;;;;;34.58;18.60;;;;;;;3.23;97.54;99496.00;5001239;28;20389;-78
2021/12/05 06:50:23;;;;;;;35.00;19.05;;;;;;;3.21;97.15;99493.56;5000872;28;20053;-78
2021/12/05 06:52:51;;;;;;;37.03;20.63;;;;;;;3.19;97.19;99501.09;4984364;28;20044;-78
2021/12/05 06:55:19;;;;;;;36.35;18.20;;;;;;;3.12;97.79;99499.69;4989744;28;20053;-78
2021/12/05 06:57:48;;;;;;;38.17;19.52;;;;;;;3.21;97.64;99493.56;5012852;28;20060;-78
2021/12/05 07:00:23;;;;;;;33.80;19.20;;;;;;;3.20;97.93;99491.94;5014845;28;20061;-78
2021/12/05 07:02:52;;;;;;;33.38;17.42;;;;;;;3.14;97.76;99481.31;5011417;28;20049;-78
2021/12/05 07:08:08;;;;;;;34.70;17.38;;;;;;;2.98;98.27;99469.56;5027962;28;20404;-79
2021/12/05 07:10:47;;;;;;;34.00;17.90;;;;;;;3.00;98.61;99475.50;5001177;28;20056;-78
2021/12/05 07:24:02;;;;;;;35.67;18.30;;;;;;;3.20;97.74;99464.06;5039341;28;19921;-78
2021/12/05 07:40:25;;;;;;;36.88;18.58;;;;;;;3.83;92.97;99468.00;4999552;28;20053;-77
2021/12/05 07:43:01;;;;;;;31.25;18.73;;;;;;;3.85;92.54;99460.41;4992863;28;20041;-79
2021/12/05 07:45:41;;;;;;;34.33;19.17;;;;;;;3.88;92.26;99463.44;4992747;28;20489;-79
2021/12/05 07:48:15;;;;;;;33.00;18.35;;;;;;;3.89;92.05;99466.94;4998366;28;20060;-78
2021/12/05 07:50:54;;;;;;;29.98;17.80;;;;;;;4.09;91.42;99466.22;4978485;28;20057;-78
2021/12/05 07:53:38;;;;;;;29.73;17.77;;;;;;;4.15;89.69;99467.88;4986373;28;20046;-79
2021/12/05 07:56:14;;;;;;;34.75;19.08;;;;;;;4.31;87.40;99470.66;4983124;28;20433;-79
2021/12/05 08:15:20;;;;;;;26.80;16.52;;;;;;;4.97;82.35;99477.31;5035748;28;20068;-81
2021/12/05 08:17:54;;;;;;;29.30;16.55;;;;;;;4.97;82.60;99484.63;5033843;28;20056;-81
2021/12/05 08:20:37;;;;;;;27.35;17.23;;;;;;;4.92;82.40;99479.19;5032873;28;20057;-80
2021/12/05 08:23:08;;;;;;;25.90;15.05;;;;;;;5.08;82.36;99477.34;5013133;28;20497;-81
2021/12/05 08:25:39;;;;;;;31.17;16.70;;;;;;;5.23;81.83;99460.25;5013999;28;20060;-81
2021/12/05 08:31:00;;;;;;;29.58;16.63;;;;;;;5.29;81.65;99469.19;5031151;28;20042;-81
2021/12/05 08:36:39;;;;;;;30.90;18.83;;;;;;;5.46;80.83;99471.59;5017875;28;20046;-80
2021/12/05 08:42:33;;;;;;;33.92;18.58;;;;;;;5.71;80.46;99465.31;5032660;28;20388;-81
2021/12/05 09:50:56;;;;;;;34.72;20.67;;;;;;;7.09;76.08;99460.63;5032431;28;20488;-81
2021/12/05 10:03:08;;;;;;;31.08;17.15;;;;;;;7.43;74.39;99437.19;4978370;28;20042;-81
2021/12/05 10:11:17;;;;;;;29.77;17.20;;;;;;;7.29;74.58;99420.72;4995544;28;20057;-81
2021/12/05 10:16:47;;;;;;;30.75;17.52;;;;;;;7.20;74.76;99417.81;5010274;28;20058;-80
2021/12/05 10:38:46;;;;;;;27.48;17.05;;;;;;;7.43;75.95;99404.53;5003082;28;20406;-82
2021/12/05 10:43:56;;;;;;;25.55;15.57;;;;;;;7.36;75.59;99400.25;4977960;28;20442;-82
2021/12/05 10:46:27;;;;;;;26.80;15.98;;;;;;;7.44;75.44;99387.09;4979826;28;20046;-82
2021/12/05 10:49:03;;;;;;;22.10;13.65;;;;;;;7.57;74.97;99388.34;5001724;28;20058;-82
2021/12/05 10:51:38;;;;;;;22.30;12.77;;;;;;;7.60;74.60;99383.13;5017058;28;20524;-83
2021/12/05 10:54:12;;;;;;;24.05;13.25;;;;;;;7.52;75.10;99376.41;5014141;28;20049;-82
2021/12/05 10:56:49;;;;;;;22.60;13.85;;;;;;;7.60;75.30;99368.69;5017897;28;20053;-82
2021/12/05 10:59:20;;;;;;;21.40;14.35;;;;;;;7.58;75.19;99376.34;5014380;28;20050;-82
2021/12/05 11:02:00;;;;;;;23.58;14.38;;;;;;;7.60;75.50;99369.50;5013887;28;20042;-82
2021/12/05 11:04:29;;;;;;;22.48;12.40;;;;;;;7.70;75.70;99370.47;5013802;28;20072;-82
2021/12/05 11:06:58;;;;;;;25.45;13.60;;;;;;;7.71;75.59;99367.47;5024491;28;20041;-82
2021/12/05 11:09:37;;;;;;;22.58;14.65;;;;;;;7.76;75.85;99364.69;5029290;28;20420;-83
2021/12/05 11:12:18;;;;;;;22.35;14.10;;;;;;;7.74;75.53;99350.56;5018437;28;20045;-82
2021/12/05 11:14:52;;;;;;;23.63;13.65;;;;;;;7.73;75.59;99354.34;5014309;28;20046;-82
2021/12/05 11:17:24;;;;;;;;;;;;;;;7.78;74.95;99351.56;5014226;28;20045;-82
2021/12/05 11:19:57;;;;;;;22.45;12.95;;;;;;;7.85;74.34;99348.50;5017978;28;20289;-83
2021/12/05 11:22:30;;;;;;;25.67;15.00;;;;;;;7.80;75.29;99349.38;5016491;28;20045;-82
2021/12/05 11:25:11;;;;;;;25.80;15.30;;;;;;;7.77;75.30;99346.44;5016442;28;20057;-82
2021/12/05 11:27:53;;;;;;;20.95;13.98;;;;;;;7.91;74.72;99346.50;5030489;28;20044;-83
2021/12/05 11:30:33;;;;;;;24.60;14.25;;;;;;;8.04;73.91;99348.53;5018120;28;20053;-83
2021/12/05 11:33:17;;;;;;;24.67;14.48;;;;;;;7.95;73.89;99339.38;5018674;28;20089;-82
2021/12/05 11:35:57;;;;;;;20.42;13.82;;;;;;;7.95;73.75;99333.94;5021605;28;20049;-82
2021/12/05 11:38:27;;;;;;;24.27;14.20;;;;;;;7.99;74.16;99331.44;5018813;28;20049;-83
2021/12/05 11:41:11;;;;;;;20.08;12.95;;;;;;;8.12;74.00;99329.91;5029440;28;20112;-82
2021/12/05 11:43:42;;;;;;;27.02;14.00;;;;;;;7.96;73.37;99330.09;5029599;28;20054;-83
2021/12/05 11:46:31;;;;;;;26.88;14.77;;;;;;;8.00;74.26;99330.31;5003833;28;20049;-83
2021/12/05 11:49:06;;;;;;;20.67;12.98;;;;;;;8.04;74.06;99315.84;5020670;28;20038;-82
2021/12/05 11:51:47;;;;;;;23.23;14.55;;;;;;;8.07;73.92;99320.69;5025455;28;20052;-82
2021/12/05 11:54:26;;;;;;;23.58;14.50;;;;;;;8.04;74.27;99315.84;5021712;28;20042;-82
2021/12/05 11:57:17;;;;;;;25.58;14.30;;;;;;;8.09;74.05;99309.50;5021838;28;20038;-82
2021/12/05 11:59:57;;;;;;;22.73;14.55;;;;;;;8.00;74.29;99298.47;5019211;28;20053;-82
2021/12/05 12:02:34;;;;;;;23.27;14.50;;;;;;;8.20;73.96;99307.44;5017967;28;20061;-82
2021/12/05 12:05:11;;;;;;;24.92;15.45;;;;;;;8.07;73.88;99309.78;5013383;28;20493;-82
2021/12/05 12:07:47;;;;;;;23.85;15.20;;;;;;;8.16;73.54;99307.22;5008099;28;20048;-82
2021/12/05 12:10:18;;;;;;;24.60;14.60;;;;;;;8.21;73.22;99309.03;5032698;28;20051;-82
2021/12/05 12:12:50;;;;;;;23.17;14.20;;;;;;;8.13;72.99;99302.38;5031092;28;20045;-83
2021/12/05 12:15:19;;;;;;;21.52;13.23;;;;;;;8.30;73.51;99296.38;5003744;28;20042;-82
2021/12/05 12:17:49;;;;;;;23.92;14.70;;;;;;;8.20;72.12;99288.34;5017022;28;20045;-82
2021/12/05 12:20:23;;;;;;;21.88;14.73;;;;;;;8.12;73.16;99284.38;5013819;28;20060;-82
2021/12/05 12:22:53;;;;;;;25.80;14.25;;;;;;;8.17;73.29;99281.56;5016858;28;20046;-82
2021/12/05 12:25:25;;;;;;;22.45;14.20;;;;;;;8.16;73.75;99274.50;5017394;28;20045;-83
2021/12/05 12:27:53;;;;;;;23.92;14.43;;;;;;;8.22;73.37;99269.81;5021998;28;20504;-82
2021/12/05 12:30:35;;;;;;;25.58;13.95;;;;;;;8.37;72.21;99270.66;5016864;28;20390;-82
2021/12/05 12:33:11;;;;;;;24.05;14.80;;;;;;;8.48;72.15;99283.03;5019889;28;20042;-82
2021/12/05 12:35:43;;;;;;;23.35;14.27;;;;;;;8.42;71.85;99265.94;5028722;28;20049;-82
2021/12/05 12:38:21;;;;;;;23.40;14.27;;;;;;;8.58;71.35;99269.25;5020008;28;20504;-82
2021/12/05 12:40:58;;;;;;;23.70;14.13;;;;;;;8.58;71.38;99262.97;5024347;28;20413;-83
2021/12/05 12:43:39;;;;;;;22.73;14.20;;;;;;;8.65;70.63;99268.84;5023212;28;20048;-82
2021/12/05 12:46:15;;;;;;;23.17;13.88;;;;;;;8.68;71.25;99267.44;5024899;28;20591;-83
2021/12/05 12:48:45;;;;;;;22.25;13.77;;;;;;;8.58;71.37;99257.53;5017843;28;20489;-82
2021/12/05 12:51:36;;;;;;;23.88;14.95;;;;;;;8.52;71.96;99259.53;5020788;28;20061;-82
2021/12/05 12:54:09;;;;;;;24.52;14.15;;;;;;;8.47;71.61;99254.16;5024440;28;20049;-82
2021/12/05 12:56:39;;;;;;;26.55;15.18;;;;;;;8.42;71.70;99254.22;5024960;28;20465;-82
2021/12/05 12:59:12;;;;;;;23.88;14.23;;;;;;;8.40;72.48;99264.63;5024020;28;20056;-82
2021/12/05 13:10:01;;;;;;;30.42;17.70;;;;;;;7.90;74.57;99260.47;5017756;28;20065;-83
2021/12/05 13:12:50;;;;;;;27.38;15.52;;;;;;;7.79;75.36;99266.03;5018297;28;20385;-83
2021/12/05 13:15:24;;;;;;;29.65;16.00;;;;;;;7.77;75.09;99279.16;5023421;28;20396;-80
2021/12/05 13:18:13;;;;;;;22.77;15.25;;;;;;;7.69;75.33;99273.53;5019471;28;20045;-81
2021/12/05 13:20:41;;;;;;;26.35;16.35;;;;;;;7.67;75.39;99284.72;5018632;28;20053;-81
2021/12/05 13:23:19;;;;;;;25.75;15.90;;;;;;;7.72;75.49;99281.16;5027069;28;20052;-81
2021/12/05 13:26:03;;;;;;;30.40;16.38;;;;;;;7.80;75.34;99278.56;5023391;28;20052;-80
2021/12/05 13:28:39;;;;;;;25.80;15.88;;;;;;;7.80;75.23;99281.31;5021646;28;20072;-82
2021/12/05 13:31:29;;;;;;;24.90;15.82;;;;;;;7.98;75.18;99283.50;5024047;28;20045;-82
2021/12/05 13:34:28;;;;;;;24.70;14.85;;;;;;;7.99;73.93;99287.84;5024213;28;20048;-81
2021/12/05 13:37:05;;;;;;;22.90;13.18;;;;;;;7.98;73.28;99300.69;5023878;28;20053;-80
2021/12/05 13:39:52;;;;;;;22.63;12.70;;;;;;;7.99;73.40;99290.56;5021958;28;20057;-81
2021/12/05 13:42:25;;;;;;;22.70;12.73;;;;;;;7.97;73.65;99288.13;5022028;28;20045;-82
2021/12/05 13:45:15;;;;;;;18.00;11.75;;;;;;;8.02;72.52;99300.91;5017723;28;20045;-82
2021/12/05 13:48:10;;;;;;;21.45;12.82;;;;;;;8.04;73.21;99298.69;5024547;28;20061;-81
2021/12/05 13:50:50;;;;;;;18.38;11.52;;;;;;;7.98;72.86;99289.78;5010657;28;20500;-82
2021/12/05 13:53:31;;;;;;;19.70;11.63;;;;;;;8.02;72.15;99296.25;5023429;28;20409;-81
2021/12/05 13:56:11;;;;;;;16.83;10.38;;;;;;;8.02;70.80;99307.13;5026167;28;20854;-81
2021/12/05 13:58:45;;;;;;;18.35;11.00;;;;;;;8.05;71.93;99317.47;5009755;28;20045;-81
2021/12/05 14:01:31;;;;;;;18.55;10.23;;;;;;;8.04;71.42;99320.47;5012813;28;20500;-82
2021/12/05 14:04:16;;;;;;;21.98;10.65;;;;;;;8.03;72.04;99319.66;4994001;28;20413;-82
2021/12/05 14:40:40;;;;;;;20.17;12.68;;;;;;;7.75;73.62;99386.75;5029546;28;20064;-78
2021/12/05 14:43:11;;;;;;;20.90;12.77;;;;;;;7.65;73.64;99377.63;5045096;28;20038;-78
2021/12/05 14:45:41;;;;;;;27.25;13.52;;;;;;;7.57;73.46;99380.16;5030849;28;20041;-78
2021/12/05 14:48:12;;;;;;;26.38;13.60;;;;;;;7.51;73.81;99396.56;5021137;28;20477;-78
2021/12/05 14:50:51;;;;;;;24.45;14.40;;;;;;;7.46;74.42;99399.31;5014447;28;20072;-77
2021/12/05 14:53:24;;;;;;;21.90;13.50;;;;;;;7.46;75.44;99396.59;5027514;28;20504;-78
2021/12/05 14:55:58;;;;;;;24.00;14.43;;;;;;;7.40;75.15;99412.16;5023339;28;20049;-79
2021/12/05 14:58:30;;;;;;;24.05;14.77;;;;;;;7.36;75.58;99404.88;5022450;28;20049;-78
2021/12/05 15:01:00;;;;;;;27.02;14.95;;;;;;;7.36;75.73;99404.88;5020557;28;20413;-78
2021/12/05 15:03:30;;;;;;;22.70;14.60;;;;;;;7.30;76.84;99406.00;5028279;28;20041;-78
2021/12/05 15:06:04;;;;;;;27.00;15.50;;;;;;;7.24;77.26;99405.25;5024591;28;20068;-78
2021/12/05 15:08:34;;;;;;;24.63;14.40;;;;;;;7.22;77.80;99424.59;5023244;28;20034;-78
2021/12/05 15:11:08;;;;;;;25.95;14.98;;;;;;;7.30;77.48;99433.22;5013780;28;20539;-78
2021/12/05 15:13:36;;;;;;;29.00;15.65;;;;;;;7.13;78.05;99431.72;5018788;28;20045;-78
2021/12/05 15:16:05;;;;;;;26.00;14.98;;;;;;;7.08;78.70;99432.59;5031933;28;20682;-78
2021/12/05 15:18:34;;;;;;;26.27;15.48;;;;;;;7.11;79.11;99436.66;5028968;28;20057;-78
2021/12/05 15:21:03;;;;;;;29.80;16.05;;;;;;;7.06;79.49;99444.84;5030352;28;20041;-78
2021/12/05 15:23:34;;;;;;;30.77;18.45;;;;;;;7.01;79.74;99444.88;5029625;28;20042;-78
2021/12/05 15:26:05;;;;;;;30.48;17.83;;;;;;;6.94;79.83;99437.88;5033585;28;20045;-78
2021/12/05 15:28:35;;;;;;;29.55;19.27;;;;;;;6.92;79.80;99455.56;5038859;28;20060;-78
2021/12/05 15:31:05;;;;;;;33.40;19.85;;;;;;;6.81;80.69;99463.00;5024565;28;20402;-77
2021/12/05 15:33:34;;;;;;;37.35;21.08;;;;;;;6.80;81.08;99469.53;5031250;28;20056;-77
2021/12/05 15:36:04;;;;;;;36.03;20.65;;;;;;;6.69;82.26;99474.19;5031567;28;20042;-78
2021/12/05 15:38:34;;;;;;;38.22;22.08;;;;;;;6.69;81.51;99479.63;5008974;28;20396;-77
2021/12/05 15:41:09;;;;;;;41.58;22.10;;;;;;;6.63;81.63;99476.16;5030833;28;20046;-77
2021/12/05 15:43:41;;;;;;;37.28;19.90;;;;;;;6.62;81.98;99490.84;5031733;28;20049;-77
2021/12/05 15:46:13;;;;;;;41.80;21.63;;;;;;;6.55;82.72;99493.84;5022472;28;20048;-78
2021/12/05 15:48:48;;;;;;;38.22;21.40;;;;;;;6.50;82.69;99493.06;5015207;28;20046;-78
2021/12/05 15:51:17;;;;;;;39.40;21.35;;;;;;;6.37;83.16;99486.34;5022600;28;20037;-81
2021/12/05 15:53:45;;;;;;;35.50;19.52;;;;;;;6.18;83.50;99506.78;5009940;28;20068;-81
2021/12/05 15:56:18;;;;;;;38.03;20.23;;;;;;;6.09;83.68;99513.88;5028254;28;20042;-81
2021/12/05 15:59:02;;;;;;;34.00;18.73;;;;;;;5.89;84.51;99503.84;5022434;28;20045;-80
2021/12/05 16:01:30;;;;;;;31.80;18.77;;;;;;;5.81;85.26;99510.66;5026225;28;20054;-80
2021/12/05 16:04:03;;;;;;;35.80;18.58;;;;;;;5.73;84.75;99513.94;5025432;28;20060;-81
2021/12/05 16:06:41;;;;;;;33.03;18.88;;;;;;;5.79;84.28;99519.06;5023429;28;20042;-81
2021/12/05 16:09:24;;;;;;;32.90;18.80;;;;;;;5.72;84.52;99528.59;5025925;28;20374;-80
2021/12/05 16:12:12;;;;;;;32.25;18.13;;;;;;;5.63;84.22;99515.56;5025322;28;20366;-80
2021/12/05 16:14:45;;;;;;;30.10;17.90;;;;;;;5.57;85.07;99519.34;5028620;28;20507;-81
2021/12/05 16:17:15;;;;;;;24.05;15.45;;;;;;;5.62;84.30;99524.78;5028031;28;20038;-80
2021/12/05 16:20:21;;;;;;;25.63;14.95;;;;;;;5.57;84.79;99543.78;5027707;28;20041;-81
2021/12/05 16:23:10;;;;;;;26.08;14.35;;;;;;;5.49;84.96;99539.72;5028463;28;20358;-80
2021/12/05 16:25:54;;;;;;;26.80;15.00;;;;;;;5.38;85.52;99530.75;5028350;28;20045;-81
2021/12/05 16:28:30;;;;;;;19.88;12.20;;;;;;;5.42;85.44;99538.38;5026069;28;20041;-81
2021/12/05 16:31:10;;;;;;;17.90;11.48;;;;;;;5.30;85.30;99525.88;5028833;28;20041;-81
2021/12/05 16:33:43;;;;;;;22.55;12.65;;;;;;;5.33;85.76;99536.19;5026606;28;20041;-80
2021/12/05 16:36:11;;;;;;;18.15;10.85;;;;;;;5.25;85.71;99523.16;5028378;28;20046;-80
2021/12/05 16:38:43;;;;;;;22.60;12.95;;;;;;;5.30;85.73;99539.44;5030050;28;20041;-80
2021/12/05 16:41:25;;;;;;;19.85;11.48;;;;;;;5.23;86.53;99530.78;5028689;28;20401;-79
2021/12/05 16:44:05;;;;;;;20.88;13.15;;;;;;;5.21;86.48;99535.63;5026796;28;20056;-80
2021/12/05 16:46:41;;;;;;;25.20;12.13;;;;;;;5.08;86.96;99532.38;5026075;28;20052;-79
2021/12/05 16:49:14;;;;;;;24.08;12.13;;;;;;;5.00;87.38;99530.19;5023426;28;20046;-80
2021/12/05 16:51:53;;;;;;;37.22;16.13;;;;;;;4.99;88.20;99536.72;5027563;28;20056;-81
2021/12/05 16:54:30;;;;;;;77.45;29.48;;;;;;;4.87;88.37;99530.69;5016483;28;20341;-78
2021/12/05 16:57:13;;;;;;;110.43;47.25;;;;;;;4.90;88.76;99541.84;5024577;28;20061;-77
2021/12/05 16:59:52;;;;;;;95.80;45.15;;;;;;;4.92;88.72;99544.25;5026012;28;20038;-79
2021/12/05 17:02:31;;;;;;;57.22;29.80;;;;;;;4.81;88.90;99540.72;5027154;28;20049;-79
2021/12/05 17:05:17;;;;;;;138.23;56.25;;;;;;;4.81;89.19;99543.44;5018193;28;20049;-78
2021/12/05 17:08:07;;;;;;;106.07;38.47;;;;;;;4.78;89.16;99543.94;5021769;28;20052;-79
2021/12/05 17:10:38;;;;;;;49.90;17.88;;;;;;;4.84;89.64;99543.72;5020673;28;20044;-79
2021/12/05 17:13:15;;;;;;;27.60;12.80;;;;;;;4.79;89.34;99542.91;5025722;28;20400;-79
2021/12/05 17:15:48;;;;;;;22.30;11.20;;;;;;;4.80;89.38;99552.66;5027158;28;20045;-78
2021/12/05 17:19:04;;;;;;;25.38;11.82;;;;;;;4.74;89.27;99554.50;5023921;28;20389;-78
2021/12/05 17:21:40;;;;;;;13.82;9.35;;;;;;;4.68;89.62;99542.03;5023366;28;20045;-79
2021/12/05 17:24:34;;;;;;;18.30;9.07;;;;;;;4.66;89.84;99555.03;5024374;28;20049;-78
2021/12/05 17:27:07;;;;;;;16.83;9.98;;;;;;;4.69;90.44;99565.34;5025195;28;20046;-79
2021/12/05 17:29:43;;;;;;;;;;;;;;;4.66;90.48;99560.47;5017404;28;20045;-80
2021/12/05 17:32:21;;;;;;;15.63;8.52;;;;;;;4.56;90.86;99558.53;5022745;28;19925;-80
2021/12/05 17:34:54;;;;;;;13.27;8.15;;;;;;;4.56;91.01;99558.53;5011566;28;20053;-80
2021/12/05 17:37:29;;;;;;;11.75;7.13;;;;;;;4.48;90.93;99562.56;5022128;28;20401;-78
2021/12/05 17:40:01;;;;;;;13.82;7.43;;;;;;;4.45;91.12;99552.22;5020380;28;20041;-80
2021/12/05 17:42:32;;;;;;;11.65;7.43;;;;;;;4.42;91.56;99569.03;5015048;28;20050;-81
2021/12/05 17:45:07;;;;;;;12.48;7.50;;;;;;;4.48;91.90;99586.13;5013061;28;20046;-79
2021/12/05 17:47:36;;;;;;;12.25;7.78;;;;;;;4.40;92.00;99574.72;5017128;28;20068;-80
2021/12/05 17:50:10;;;;;;;12.18;7.45;;;;;;;4.43;91.99;99582.31;5017002;28;20485;-81
2021/12/05 17:52:45;;;;;;;11.85;7.57;;;;;;;4.43;92.20;99592.31;5016587;28;20045;-81
2021/12/05 17:55:30;;;;;;;14.15;8.45;;;;;;;4.42;92.10;99596.13;5013480;28;20676;-81
2021/12/05 17:58:19;;;;;;;13.60;8.13;;;;;;;4.39;92.59;99593.94;5026060;28;20061;-79
2021/12/05 18:02:41;;;;;;;11.70;8.00;;;;;;;4.40;93.05;99603.72;5024812;28;20049;-78
2021/12/05 18:03:51;;;;;;;15.25;8.68;;;;;;;4.26;93.45;99593.31;5019864;28;20057;-80
2021/12/05 18:06:20;;;;;;;13.82;8.20;;;;;;;4.21;93.61;99596.00;5021423;28;20053;-79
2021/12/05 18:08:49;;;;;;;13.23;8.10;;;;;;;4.21;94.26;99601.41;5025232;28;20484;-79
2021/12/05 18:11:23;;;;;;;12.55;7.50;;;;;;;4.21;94.32;99603.31;5028486;28;20516;-79